sensor_id;sensor_type;location;lat;lon;timestamp;temperature;humidity
51863;DHT22;37900;52.996;6.278;2023-02-04T00:01:49;15.90;87.60
51863;DHT22;37900;52.996;6.278;2023-02-04T00:04:14;15.90;87.50
51863;DHT22;37900;52.996;6.278;2023-02-04T00:06:41;15.90;87.50
51863;DHT22;37900;52.996;6.278;2023-02-04T00:09:07;15.90;87.40
51863;DHT22;37900;52.996;6.278;2023-02-04T00:11:32;15.90;87.40
51863;DHT22;37900;52.996;6.278;2023-02-04T00:13:58;15.80;87.30
51863;DHT22;37900;52.996;6.278;2023-02-04T00:16:24;15.80;87.20
51863;DHT22;37900;52.996;6.278;2023-02-04T00:18:50;15.90;87.20
51863;DHT22;37900;52.996;6.278;2023-02-04T00:21:15;15.80;87.10
51863;DHT22;37900;52.996;6.278;2023-02-04T00:23:41;15.80;87.10
51863;DHT22;37900;52.996;6.278;2023-02-04T00:26:07;15.80;87.00
51863;DHT22;37900;52.996;6.278;2023-02-04T00:28:33;15.80;87.00
51863;DHT22;37900;52.996;6.278;2023-02-04T00:30:58;15.80;86.90
51863;DHT22;37900;52.996;6.278;2023-02-04T00:33:24;15.80;86.90
51863;DHT22;37900;52.996;6.278;2023-02-04T00:35:50;15.80;86.80
51863;DHT22;37900;52.996;6.278;2023-02-04T00:38:16;15.80;86.80
51863;DHT22;37900;52.996;6.278;2023-02-04T00:40:41;15.80;86.80
51863;DHT22;37900;52.996;6.278;2023-02-04T00:43:07;15.80;86.70
51863;DHT22;37900;52.996;6.278;2023-02-04T00:45:33;15.80;86.70
51863;DHT22;37900;52.996;6.278;2023-02-04T00:47:58;15.80;86.60
51863;DHT22;37900;52.996;6.278;2023-02-04T00:50:24;15.80;86.60
51863;DHT22;37900;52.996;6.278;2023-02-04T00:52:50;15.70;86.50
51863;DHT22;37900;52.996;6.278;2023-02-04T00:55:17;15.70;86.50
51863;DHT22;37900;52.996;6.278;2023-02-04T00:57:44;15.70;86.40
51863;DHT22;37900;52.996;6.278;2023-02-04T01:00:13;15.70;86.40
51863;DHT22;37900;52.996;6.278;2023-02-04T01:02:39;15.70;86.30
51863;DHT22;37900;52.996;6.278;2023-02-04T01:05:08;15.70;86.30
51863;DHT22;37900;52.996;6.278;2023-02-04T01:07:34;15.70;86.30
51863;DHT22;37900;52.996;6.278;2023-02-04T01:10:00;15.70;86.80
51863;DHT22;37900;52.996;6.278;2023-02-04T01:12:26;15.70;86.20
51863;DHT22;37900;52.996;6.278;2023-02-04T01:14:53;15.70;86.10
51863;DHT22;37900;52.996;6.278;2023-02-04T01:17:19;15.70;86.70
51863;DHT22;37900;52.996;6.278;2023-02-04T01:19:46;15.70;86.10
51863;DHT22;37900;52.996;6.278;2023-02-04T01:22:12;15.70;86.10
51863;DHT22;37900;52.996;6.278;2023-02-04T01:24:37;15.70;86.10
51863;DHT22;37900;52.996;6.278;2023-02-04T01:27:03;15.70;86.00
51863;DHT22;37900;52.996;6.278;2023-02-04T01:29:29;15.60;85.90
51863;DHT22;37900;52.996;6.278;2023-02-04T01:31:54;15.60;85.90
51863;DHT22;37900;52.996;6.278;2023-02-04T01:34:20;15.60;85.90
51863;DHT22;37900;52.996;6.278;2023-02-04T01:36:46;15.60;85.90
51863;DHT22;37900;52.996;6.278;2023-02-04T01:39:11;15.60;85.90
51863;DHT22;37900;52.996;6.278;2023-02-04T01:41:38;15.60;85.80
51863;DHT22;37900;52.996;6.278;2023-02-04T01:44:04;15.60;85.80
51863;DHT22;37900;52.996;6.278;2023-02-04T01:46:30;15.60;85.80
51863;DHT22;37900;52.996;6.278;2023-02-04T01:48:59;15.60;85.80
51863;DHT22;37900;52.996;6.278;2023-02-04T01:51:26;15.60;85.70
51863;DHT22;37900;52.996;6.278;2023-02-04T01:53:54;15.60;85.70
51863;DHT22;37900;52.996;6.278;2023-02-04T01:56:22;15.60;85.70
51863;DHT22;37900;52.996;6.278;2023-02-04T01:58:48;15.60;85.60
51863;DHT22;37900;52.996;6.278;2023-02-04T02:01:32;15.60;85.70
51863;DHT22;37900;52.996;6.278;2023-02-04T02:03:58;15.60;85.60
51863;DHT22;37900;52.996;6.278;2023-02-04T02:06:24;15.60;85.60
51863;DHT22;37900;52.996;6.278;2023-02-04T02:08:50;15.60;85.60
51863;DHT22;37900;52.996;6.278;2023-02-04T02:11:15;15.60;85.50
51863;DHT22;37900;52.996;6.278;2023-02-04T02:13:41;15.60;85.50
51863;DHT22;37900;52.996;6.278;2023-02-04T02:16:07;15.50;85.40
51863;DHT22;37900;52.996;6.278;2023-02-04T02:18:33;15.50;85.40
51863;DHT22;37900;52.996;6.278;2023-02-04T02:21:04;15.60;85.40
51863;DHT22;37900;52.996;6.278;2023-02-04T02:23:47;15.60;85.40
51863;DHT22;37900;52.996;6.278;2023-02-04T02:26:15;15.60;85.40
51863;DHT22;37900;52.996;6.278;2023-02-04T02:28:41;15.60;85.40
51863;DHT22;37900;52.996;6.278;2023-02-04T02:31:07;15.50;85.20
51863;DHT22;37900;52.996;6.278;2023-02-04T02:33:34;15.50;85.30
51863;DHT22;37900;52.996;6.278;2023-02-04T02:36:00;15.50;85.30
51863;DHT22;37900;52.996;6.278;2023-02-04T02:38:26;15.50;85.30
51863;DHT22;37900;52.996;6.278;2023-02-04T02:40:51;15.50;85.30
51863;DHT22;37900;52.996;6.278;2023-02-04T02:43:21;15.50;85.30
51863;DHT22;37900;52.996;6.278;2023-02-04T02:45:47;15.50;85.20
51863;DHT22;37900;52.996;6.278;2023-02-04T02:48:14;15.50;85.20
51863;DHT22;37900;52.996;6.278;2023-02-04T02:50:41;15.50;85.20
51863;DHT22;37900;52.996;6.278;2023-02-04T02:53:12;15.50;85.20
51863;DHT22;37900;52.996;6.278;2023-02-04T02:55:38;15.50;85.10
51863;DHT22;37900;52.996;6.278;2023-02-04T02:58:04;15.50;85.10
51863;DHT22;37900;52.996;6.278;2023-02-04T03:00:34;15.50;85.10
51863;DHT22;37900;52.996;6.278;2023-02-04T03:03:10;15.50;85.10
51863;DHT22;37900;52.996;6.278;2023-02-04T03:05:40;15.50;85.00
51863;DHT22;37900;52.996;6.278;2023-02-04T03:08:06;15.40;84.90
51863;DHT22;37900;52.996;6.278;2023-02-04T03:10:34;15.50;85.10
51863;DHT22;37900;52.996;6.278;2023-02-04T03:13:00;15.40;85.00
51863;DHT22;37900;52.996;6.278;2023-02-04T03:15:27;15.40;84.90
51863;DHT22;37900;52.996;6.278;2023-02-04T03:17:52;15.40;84.90
51863;DHT22;37900;52.996;6.278;2023-02-04T03:20:23;15.40;84.90
51863;DHT22;37900;52.996;6.278;2023-02-04T03:22:51;15.40;84.90
51863;DHT22;37900;52.996;6.278;2023-02-04T03:25:17;15.40;84.90
51863;DHT22;37900;52.996;6.278;2023-02-04T03:27:43;15.40;84.90
51863;DHT22;37900;52.996;6.278;2023-02-04T03:30:09;15.40;84.90
51863;DHT22;37900;52.996;6.278;2023-02-04T03:32:34;15.40;84.90
51863;DHT22;37900;52.996;6.278;2023-02-04T03:35:00;15.40;85.50
51863;DHT22;37900;52.996;6.278;2023-02-04T03:37:26;15.40;84.90
51863;DHT22;37900;52.996;6.278;2023-02-04T03:39:51;15.40;84.90
51863;DHT22;37900;52.996;6.278;2023-02-04T03:42:17;15.40;84.90
51863;DHT22;37900;52.996;6.278;2023-02-04T03:44:43;15.40;84.90
51863;DHT22;37900;52.996;6.278;2023-02-04T03:47:09;15.40;84.80
51863;DHT22;37900;52.996;6.278;2023-02-04T03:49:35;15.30;84.80
51863;DHT22;37900;52.996;6.278;2023-02-04T03:52:02;15.40;84.80
51863;DHT22;37900;52.996;6.278;2023-02-04T03:54:28;15.40;84.80
51863;DHT22;37900;52.996;6.278;2023-02-04T03:56:54;15.40;84.80
51863;DHT22;37900;52.996;6.278;2023-02-04T03:59:19;15.40;84.80
51863;DHT22;37900;52.996;6.278;2023-02-04T04:01:45;15.40;84.80
51863;DHT22;37900;52.996;6.278;2023-02-04T04:04:10;15.40;84.70
51863;DHT22;37900;52.996;6.278;2023-02-04T04:06:36;15.30;84.70
51863;DHT22;37900;52.996;6.278;2023-02-04T04:09:02;15.40;84.70
51863;DHT22;37900;52.996;6.278;2023-02-04T04:11:29;15.30;84.70
51863;DHT22;37900;52.996;6.278;2023-02-04T04:13:55;15.30;84.60
51863;DHT22;37900;52.996;6.278;2023-02-04T04:16:21;15.30;84.60
51863;DHT22;37900;52.996;6.278;2023-02-04T04:18:47;15.30;84.60
51863;DHT22;37900;52.996;6.278;2023-02-04T04:21:13;15.30;84.60
51863;DHT22;37900;52.996;6.278;2023-02-04T04:23:39;15.30;84.60
51863;DHT22;37900;52.996;6.278;2023-02-04T04:26:04;15.30;84.60
51863;DHT22;37900;52.996;6.278;2023-02-04T04:28:30;15.30;84.60
51863;DHT22;37900;52.996;6.278;2023-02-04T04:30:56;15.30;84.50
51863;DHT22;37900;52.996;6.278;2023-02-04T04:33:21;15.30;84.50
51863;DHT22;37900;52.996;6.278;2023-02-04T04:35:47;15.30;84.50
51863;DHT22;37900;52.996;6.278;2023-02-04T04:38:13;15.30;84.50
51863;DHT22;37900;52.996;6.278;2023-02-04T04:40:39;15.30;84.50
51863;DHT22;37900;52.996;6.278;2023-02-04T04:43:04;15.30;84.40
51863;DHT22;37900;52.996;6.278;2023-02-04T04:45:30;15.30;84.50
51863;DHT22;37900;52.996;6.278;2023-02-04T04:47:56;15.30;84.40
51863;DHT22;37900;52.996;6.278;2023-02-04T04:50:21;15.30;84.40
51863;DHT22;37900;52.996;6.278;2023-02-04T04:52:47;15.30;84.40
51863;DHT22;37900;52.996;6.278;2023-02-04T04:55:13;15.30;84.40
51863;DHT22;37900;52.996;6.278;2023-02-04T04:57:39;15.30;84.40
51863;DHT22;37900;52.996;6.278;2023-02-04T05:00:07;15.30;84.40
51863;DHT22;37900;52.996;6.278;2023-02-04T05:02:33;15.30;84.40
51863;DHT22;37900;52.996;6.278;2023-02-04T05:04:58;15.20;84.30
51863;DHT22;37900;52.996;6.278;2023-02-04T05:07:24;15.20;84.30
51863;DHT22;37900;52.996;6.278;2023-02-04T05:09:50;15.20;84.30
51863;DHT22;37900;52.996;6.278;2023-02-04T05:12:15;15.20;84.30
51863;DHT22;37900;52.996;6.278;2023-02-04T05:14:41;15.20;84.30
51863;DHT22;37900;52.996;6.278;2023-02-04T05:17:07;15.20;84.20
51863;DHT22;37900;52.996;6.278;2023-02-04T05:19:32;15.20;84.20
51863;DHT22;37900;52.996;6.278;2023-02-04T05:21:58;15.20;84.20
51863;DHT22;37900;52.996;6.278;2023-02-04T05:24:26;15.20;84.20
51863;DHT22;37900;52.996;6.278;2023-02-04T05:26:52;15.20;84.20
51863;DHT22;37900;52.996;6.278;2023-02-04T05:29:18;15.20;84.20
51863;DHT22;37900;52.996;6.278;2023-02-04T05:31:43;15.20;84.20
51863;DHT22;37900;52.996;6.278;2023-02-04T05:34:09;15.20;84.20
51863;DHT22;37900;52.996;6.278;2023-02-04T05:36:35;15.20;84.20
51863;DHT22;37900;52.996;6.278;2023-02-04T05:39:00;15.20;84.20
51863;DHT22;37900;52.996;6.278;2023-02-04T05:41:26;15.20;84.10
51863;DHT22;37900;52.996;6.278;2023-02-04T05:43:52;15.20;84.70
51863;DHT22;37900;52.996;6.278;2023-02-04T05:46:18;15.20;84.10
51863;DHT22;37900;52.996;6.278;2023-02-04T05:48:43;15.10;84.10
51863;DHT22;37900;52.996;6.278;2023-02-04T05:51:09;15.20;84.10
51863;DHT22;37900;52.996;6.278;2023-02-04T05:53:35;15.10;84.00
51863;DHT22;37900;52.996;6.278;2023-02-04T05:56:01;15.20;84.10
51863;DHT22;37900;52.996;6.278;2023-02-04T05:58:26;15.10;84.00
51863;DHT22;37900;52.996;6.278;2023-02-04T06:00:58;15.10;84.00
51863;DHT22;37900;52.996;6.278;2023-02-04T06:03:24;15.10;84.00
51863;DHT22;37900;52.996;6.278;2023-02-04T06:05:50;15.20;84.00
51863;DHT22;37900;52.996;6.278;2023-02-04T06:08:16;15.10;84.00
51863;DHT22;37900;52.996;6.278;2023-02-04T06:10:42;15.10;84.00
51863;DHT22;37900;52.996;6.278;2023-02-04T06:13:07;15.10;84.00
51863;DHT22;37900;52.996;6.278;2023-02-04T06:15:33;15.10;84.00
51863;DHT22;37900;52.996;6.278;2023-02-04T06:17:59;15.10;84.00
51863;DHT22;37900;52.996;6.278;2023-02-04T06:20:25;15.10;84.00
51863;DHT22;37900;52.996;6.278;2023-02-04T06:22:50;15.10;84.00
51863;DHT22;37900;52.996;6.278;2023-02-04T06:25:17;15.10;83.90
51863;DHT22;37900;52.996;6.278;2023-02-04T06:27:43;15.10;83.90
51863;DHT22;37900;52.996;6.278;2023-02-04T06:30:10;15.10;83.90
51863;DHT22;37900;52.996;6.278;2023-02-04T06:32:36;15.10;83.90
51863;DHT22;37900;52.996;6.278;2023-02-04T06:35:01;15.10;84.00
51863;DHT22;37900;52.996;6.278;2023-02-04T06:37:27;15.10;83.90
51863;DHT22;37900;52.996;6.278;2023-02-04T06:39:53;15.10;83.90
51863;DHT22;37900;52.996;6.278;2023-02-04T06:42:19;15.10;84.50
51863;DHT22;37900;52.996;6.278;2023-02-04T06:44:45;15.10;83.90
51863;DHT22;37900;52.996;6.278;2023-02-04T06:47:11;15.00;83.80
51863;DHT22;37900;52.996;6.278;2023-02-04T06:49:37;15.00;83.80
51863;DHT22;37900;52.996;6.278;2023-02-04T06:52:03;15.10;83.80
51863;DHT22;37900;52.996;6.278;2023-02-04T06:54:29;15.10;83.80
51863;DHT22;37900;52.996;6.278;2023-02-04T06:56:55;15.10;83.80
51863;DHT22;37900;52.996;6.278;2023-02-04T06:59:28;15.00;83.80
51863;DHT22;37900;52.996;6.278;2023-02-04T07:01:56;15.10;83.80
51863;DHT22;37900;52.996;6.278;2023-02-04T07:04:22;15.10;83.80
51863;DHT22;37900;52.996;6.278;2023-02-04T07:06:48;15.10;83.80
51863;DHT22;37900;52.996;6.278;2023-02-04T07:09:14;15.00;83.70
51863;DHT22;37900;52.996;6.278;2023-02-04T07:11:39;15.00;83.80
51863;DHT22;37900;52.996;6.278;2023-02-04T07:14:05;15.00;83.70
51863;DHT22;37900;52.996;6.278;2023-02-04T07:16:31;15.00;83.70
51863;DHT22;37900;52.996;6.278;2023-02-04T07:18:56;15.00;83.70
51863;DHT22;37900;52.996;6.278;2023-02-04T07:21:22;15.00;83.70
51863;DHT22;37900;52.996;6.278;2023-02-04T07:23:48;15.00;83.70
51863;DHT22;37900;52.996;6.278;2023-02-04T07:26:14;15.00;83.70
51863;DHT22;37900;52.996;6.278;2023-02-04T07:28:39;15.00;83.70
51863;DHT22;37900;52.996;6.278;2023-02-04T07:31:05;15.00;83.70
51863;DHT22;37900;52.996;6.278;2023-02-04T07:33:31;15.00;83.70
51863;DHT22;37900;52.996;6.278;2023-02-04T07:35:57;15.00;83.70
51863;DHT22;37900;52.996;6.278;2023-02-04T07:38:22;15.00;83.70
51863;DHT22;37900;52.996;6.278;2023-02-04T07:40:48;15.00;83.70
51863;DHT22;37900;52.996;6.278;2023-02-04T07:43:14;15.00;83.60
51863;DHT22;37900;52.996;6.278;2023-02-04T07:45:40;15.00;83.70
51863;DHT22;37900;52.996;6.278;2023-02-04T07:48:06;15.00;83.70
51863;DHT22;37900;52.996;6.278;2023-02-04T07:50:31;15.00;83.60
51863;DHT22;37900;52.996;6.278;2023-02-04T07:52:57;15.00;83.60
51863;DHT22;37900;52.996;6.278;2023-02-04T07:55:23;14.90;83.60
51863;DHT22;37900;52.996;6.278;2023-02-04T07:57:49;15.00;83.60
51863;DHT22;37900;52.996;6.278;2023-02-04T08:00:15;14.90;83.50
51863;DHT22;37900;52.996;6.278;2023-02-04T08:02:41;14.90;83.50
51863;DHT22;37900;52.996;6.278;2023-02-04T08:05:08;14.90;83.60
51863;DHT22;37900;52.996;6.278;2023-02-04T08:07:33;14.90;83.50
51863;DHT22;37900;52.996;6.278;2023-02-04T08:09:59;14.90;83.60
51863;DHT22;37900;52.996;6.278;2023-02-04T08:12:25;14.90;83.50
51863;DHT22;37900;52.996;6.278;2023-02-04T08:14:50;14.90;83.50
51863;DHT22;37900;52.996;6.278;2023-02-04T08:17:17;14.90;83.50
51863;DHT22;37900;52.996;6.278;2023-02-04T08:19:42;14.90;83.50
51863;DHT22;37900;52.996;6.278;2023-02-04T08:22:08;14.90;83.50
51863;DHT22;37900;52.996;6.278;2023-02-04T08:24:35;14.90;83.50
51863;DHT22;37900;52.996;6.278;2023-02-04T08:27:00;14.90;83.50
51863;DHT22;37900;52.996;6.278;2023-02-04T08:29:26;14.90;83.50
51863;DHT22;37900;52.996;6.278;2023-02-04T08:31:52;14.90;83.50
51863;DHT22;37900;52.996;6.278;2023-02-04T08:34:17;14.90;83.60
51863;DHT22;37900;52.996;6.278;2023-02-04T08:36:43;14.90;83.90
51863;DHT22;37900;52.996;6.278;2023-02-04T08:39:09;14.90;84.20
51863;DHT22;37900;52.996;6.278;2023-02-04T08:41:35;15.00;84.40
51863;DHT22;37900;52.996;6.278;2023-02-04T08:44:01;15.00;84.70
51863;DHT22;37900;52.996;6.278;2023-02-04T08:46:26;15.00;84.80
51863;DHT22;37900;52.996;6.278;2023-02-04T08:48:52;15.00;85.00
51863;DHT22;37900;52.996;6.278;2023-02-04T08:51:18;15.00;85.20
51863;DHT22;37900;52.996;6.278;2023-02-04T08:53:44;15.00;85.30
51863;DHT22;37900;52.996;6.278;2023-02-04T08:56:09;15.00;85.40
51863;DHT22;37900;52.996;6.278;2023-02-04T08:58:40;15.10;85.60
51863;DHT22;37900;52.996;6.278;2023-02-04T09:01:05;15.00;85.60
51863;DHT22;37900;52.996;6.278;2023-02-04T09:03:31;15.00;85.80
51863;DHT22;37900;52.996;6.278;2023-02-04T09:05:57;15.00;85.90
51863;DHT22;37900;52.996;6.278;2023-02-04T09:08:23;15.00;85.90
51863;DHT22;37900;52.996;6.278;2023-02-04T09:10:48;15.10;86.10
51863;DHT22;37900;52.996;6.278;2023-02-04T09:13:14;15.10;86.20
51863;DHT22;37900;52.996;6.278;2023-02-04T09:15:40;15.10;86.30
51863;DHT22;37900;52.996;6.278;2023-02-04T09:18:06;15.10;86.40
51863;DHT22;37900;52.996;6.278;2023-02-04T09:20:43;15.00;86.30
51863;DHT22;37900;52.996;6.278;2023-02-04T09:23:10;15.10;86.40
51863;DHT22;37900;52.996;6.278;2023-02-04T09:25:40;15.10;86.40
51863;DHT22;37900;52.996;6.278;2023-02-04T09:28:07;15.10;86.50
51863;DHT22;37900;52.996;6.278;2023-02-04T09:30:41;15.10;86.50
51863;DHT22;37900;52.996;6.278;2023-02-04T09:33:07;15.00;86.50
51863;DHT22;37900;52.996;6.278;2023-02-04T09:35:33;15.10;86.60
51863;DHT22;37900;52.996;6.278;2023-02-04T09:37:59;15.00;86.50
51863;DHT22;37900;52.996;6.278;2023-02-04T09:40:27;15.00;86.60
51863;DHT22;37900;52.996;6.278;2023-02-04T09:42:54;15.00;86.60
51863;DHT22;37900;52.996;6.278;2023-02-04T09:45:27;15.00;86.60
51863;DHT22;37900;52.996;6.278;2023-02-04T09:47:56;15.00;86.60
51863;DHT22;37900;52.996;6.278;2023-02-04T09:50:24;15.00;86.60
51863;DHT22;37900;52.996;6.278;2023-02-04T09:52:54;15.00;86.60
51863;DHT22;37900;52.996;6.278;2023-02-04T09:55:24;15.00;86.60
51863;DHT22;37900;52.996;6.278;2023-02-04T09:57:51;15.00;86.60
51863;DHT22;37900;52.996;6.278;2023-02-04T10:00:21;15.00;86.50
51863;DHT22;37900;52.996;6.278;2023-02-04T10:02:48;15.00;86.40
51863;DHT22;37900;52.996;6.278;2023-02-04T10:05:20;15.00;86.40
51863;DHT22;37900;52.996;6.278;2023-02-04T10:07:48;15.00;86.30
51863;DHT22;37900;52.996;6.278;2023-02-04T10:10:21;15.00;86.30
51863;DHT22;37900;52.996;6.278;2023-02-04T10:12:51;15.00;86.20
51863;DHT22;37900;52.996;6.278;2023-02-04T10:15:18;15.00;86.20
51863;DHT22;37900;52.996;6.278;2023-02-04T10:17:45;14.90;86.10
51863;DHT22;37900;52.996;6.278;2023-02-04T10:20:13;14.90;86.10
51863;DHT22;37900;52.996;6.278;2023-02-04T10:22:39;15.00;86.00
51863;DHT22;37900;52.996;6.278;2023-02-04T10:25:13;14.90;86.00
51863;DHT22;37900;52.996;6.278;2023-02-04T10:27:50;15.00;86.00
51863;DHT22;37900;52.996;6.278;2023-02-04T10:30:23;14.90;86.00
51863;DHT22;37900;52.996;6.278;2023-02-04T10:32:49;14.90;86.00
51863;DHT22;37900;52.996;6.278;2023-02-04T10:35:17;14.90;86.00
51863;DHT22;37900;52.996;6.278;2023-02-04T10:37:43;14.90;85.90
51863;DHT22;37900;52.996;6.278;2023-02-04T10:40:30;14.90;85.90
51863;DHT22;37900;52.996;6.278;2023-02-04T10:42:56;14.90;85.80
51863;DHT22;37900;52.996;6.278;2023-02-04T10:45:26;14.90;85.80
51863;DHT22;37900;52.996;6.278;2023-02-04T10:47:54;14.90;85.80
51863;DHT22;37900;52.996;6.278;2023-02-04T10:50:22;14.90;85.80
51863;DHT22;37900;52.996;6.278;2023-02-04T10:52:57;14.90;85.80
51863;DHT22;37900;52.996;6.278;2023-02-04T10:55:46;14.90;85.70
51863;DHT22;37900;52.996;6.278;2023-02-04T10:58:19;14.90;85.70
51863;DHT22;37900;52.996;6.278;2023-02-04T11:00:46;14.90;85.70
51863;DHT22;37900;52.996;6.278;2023-02-04T11:03:20;14.90;85.70
51863;DHT22;37900;52.996;6.278;2023-02-04T11:05:47;14.90;85.70
51863;DHT22;37900;52.996;6.278;2023-02-04T11:10:55;14.90;85.60
51863;DHT22;37900;52.996;6.278;2023-02-04T11:13:27;14.90;85.60
51863;DHT22;37900;52.996;6.278;2023-02-04T11:16:31;14.90;85.60
51863;DHT22;37900;52.996;6.278;2023-02-04T11:19:03;14.90;85.50
51863;DHT22;37900;52.996;6.278;2023-02-04T11:26:41;14.90;85.50
51863;DHT22;37900;52.996;6.278;2023-02-04T11:29:26;14.90;85.60
51863;DHT22;37900;52.996;6.278;2023-02-04T11:39:28;14.90;85.90
51863;DHT22;37900;52.996;6.278;2023-02-04T11:41:58;15.00;86.00
51863;DHT22;37900;52.996;6.278;2023-02-04T11:44:24;15.00;86.00
51863;DHT22;37900;52.996;6.278;2023-02-04T11:46:54;15.00;86.10
51863;DHT22;37900;52.996;6.278;2023-02-04T11:49:21;15.00;86.20
51863;DHT22;37900;52.996;6.278;2023-02-04T11:51:48;15.00;86.20
51863;DHT22;37900;52.996;6.278;2023-02-04T11:54:15;15.10;86.40
51863;DHT22;37900;52.996;6.278;2023-02-04T11:56:45;15.20;86.40
51863;DHT22;37900;52.996;6.278;2023-02-04T11:59:11;15.20;86.50
51863;DHT22;37900;52.996;6.278;2023-02-04T12:01:38;15.20;86.60
51863;DHT22;37900;52.996;6.278;2023-02-04T12:04:20;15.30;86.60
51863;DHT22;37900;52.996;6.278;2023-02-04T12:06:58;15.30;86.70
51863;DHT22;37900;52.996;6.278;2023-02-04T12:09:25;15.30;86.80
51863;DHT22;37900;52.996;6.278;2023-02-04T12:11:53;15.30;86.80
51863;DHT22;37900;52.996;6.278;2023-02-04T12:14:19;15.40;86.90
51863;DHT22;37900;52.996;6.278;2023-02-04T12:16:47;15.40;86.90
51863;DHT22;37900;52.996;6.278;2023-02-04T12:19:13;15.40;86.90
51863;DHT22;37900;52.996;6.278;2023-02-04T12:21:39;15.40;86.80
51863;DHT22;37900;52.996;6.278;2023-02-04T12:24:05;15.40;86.80
51863;DHT22;37900;52.996;6.278;2023-02-04T12:26:32;15.40;86.90
51863;DHT22;37900;52.996;6.278;2023-02-04T12:28:57;15.40;86.90
51863;DHT22;37900;52.996;6.278;2023-02-04T12:31:27;15.40;86.90
51863;DHT22;37900;52.996;6.278;2023-02-04T12:33:53;15.40;86.90
51863;DHT22;37900;52.996;6.278;2023-02-04T12:36:19;15.40;87.10
51863;DHT22;37900;52.996;6.278;2023-02-04T12:38:45;15.40;87.20
51863;DHT22;37900;52.996;6.278;2023-02-04T12:41:10;15.40;87.30
51863;DHT22;37900;52.996;6.278;2023-02-04T12:43:36;15.40;87.30
51863;DHT22;37900;52.996;6.278;2023-02-04T12:46:02;15.40;87.30
51863;DHT22;37900;52.996;6.278;2023-02-04T12:48:28;15.50;87.50
51863;DHT22;37900;52.996;6.278;2023-02-04T12:50:53;15.50;87.50
51863;DHT22;37900;52.996;6.278;2023-02-04T12:53:19;15.50;87.50
51863;DHT22;37900;52.996;6.278;2023-02-04T12:55:45;15.60;87.50
51863;DHT22;37900;52.996;6.278;2023-02-04T12:58:11;15.60;87.50
51863;DHT22;37900;52.996;6.278;2023-02-04T13:00:36;15.60;87.50
51863;DHT22;37900;52.996;6.278;2023-02-04T13:03:02;15.60;87.60
51863;DHT22;37900;52.996;6.278;2023-02-04T13:05:30;15.50;87.50
51863;DHT22;37900;52.996;6.278;2023-02-04T13:07:56;15.60;87.70
51863;DHT22;37900;52.996;6.278;2023-02-04T13:10:22;15.60;87.90
51863;DHT22;37900;52.996;6.278;2023-02-04T13:12:49;15.50;88.00
51863;DHT22;37900;52.996;6.278;2023-02-04T13:15:15;15.60;88.30
51863;DHT22;37900;52.996;6.278;2023-02-04T13:17:41;15.60;88.50
51863;DHT22;37900;52.996;6.278;2023-02-04T13:20:07;15.50;88.70
51863;DHT22;37900;52.996;6.278;2023-02-04T13:22:33;15.60;88.90
51863;DHT22;37900;52.996;6.278;2023-02-04T13:24:58;15.60;89.10
51863;DHT22;37900;52.996;6.278;2023-02-04T13:27:24;15.60;89.20
51863;DHT22;37900;52.996;6.278;2023-02-04T13:29:52;15.70;89.50
51863;DHT22;37900;52.996;6.278;2023-02-04T13:32:17;15.70;89.70
51863;DHT22;37900;52.996;6.278;2023-02-04T13:34:43;15.70;89.70
51863;DHT22;37900;52.996;6.278;2023-02-04T13:37:09;15.80;89.70
51863;DHT22;37900;52.996;6.278;2023-02-04T13:39:35;15.80;89.70
51863;DHT22;37900;52.996;6.278;2023-02-04T13:42:01;15.80;89.70
51863;DHT22;37900;52.996;6.278;2023-02-04T13:44:26;15.80;89.70
51863;DHT22;37900;52.996;6.278;2023-02-04T13:46:52;15.80;89.60
51863;DHT22;37900;52.996;6.278;2023-02-04T13:49:18;15.70;89.60
51863;DHT22;37900;52.996;6.278;2023-02-04T13:51:44;15.70;89.60
51863;DHT22;37900;52.996;6.278;2023-02-04T13:54:09;15.70;89.70
51863;DHT22;37900;52.996;6.278;2023-02-04T13:56:35;15.70;89.70
51863;DHT22;37900;52.996;6.278;2023-02-04T13:59:02;15.70;89.70
51863;DHT22;37900;52.996;6.278;2023-02-04T14:01:28;15.70;89.70
51863;DHT22;37900;52.996;6.278;2023-02-04T14:03:54;15.70;89.70
51863;DHT22;37900;52.996;6.278;2023-02-04T14:06:19;15.70;89.70
51863;DHT22;37900;52.996;6.278;2023-02-04T14:08:47;15.70;89.70
51863;DHT22;37900;52.996;6.278;2023-02-04T14:11:13;15.70;89.80
51863;DHT22;37900;52.996;6.278;2023-02-04T14:13:39;15.70;90.00
51863;DHT22;37900;52.996;6.278;2023-02-04T14:16:04;15.70;89.90
51863;DHT22;37900;52.996;6.278;2023-02-04T14:18:32;15.80;89.90
51863;DHT22;37900;52.996;6.278;2023-02-04T14:20:57;15.80;89.80
51863;DHT22;37900;52.996;6.278;2023-02-04T14:23:23;15.80;89.80
51863;DHT22;37900;52.996;6.278;2023-02-04T14:25:49;15.80;89.70
51863;DHT22;37900;52.996;6.278;2023-02-04T14:28:14;15.90;89.40
51863;DHT22;37900;52.996;6.278;2023-02-04T14:30:40;15.80;89.30
51863;DHT22;37900;52.996;6.278;2023-02-04T14:33:06;15.80;89.30
51863;DHT22;37900;52.996;6.278;2023-02-04T14:35:33;15.80;89.40
51863;DHT22;37900;52.996;6.278;2023-02-04T14:37:59;15.80;89.50
51863;DHT22;37900;52.996;6.278;2023-02-04T14:40:25;15.80;89.60
51863;DHT22;37900;52.996;6.278;2023-02-04T14:42:50;15.80;89.70
51863;DHT22;37900;52.996;6.278;2023-02-04T14:45:16;15.80;89.80
51863;DHT22;37900;52.996;6.278;2023-02-04T14:47:42;15.80;89.90
51863;DHT22;37900;52.996;6.278;2023-02-04T14:50:12;15.80;90.00
51863;DHT22;37900;52.996;6.278;2023-02-04T14:52:38;15.70;89.90
51863;DHT22;37900;52.996;6.278;2023-02-04T14:55:04;15.70;90.00
51863;DHT22;37900;52.996;6.278;2023-02-04T14:57:30;15.70;90.00
51863;DHT22;37900;52.996;6.278;2023-02-04T14:59:56;15.70;90.00
51863;DHT22;37900;52.996;6.278;2023-02-04T15:02:21;15.80;90.00
51863;DHT22;37900;52.996;6.278;2023-02-04T15:04:47;15.80;90.00
51863;DHT22;37900;52.996;6.278;2023-02-04T15:07:13;15.80;90.00
51863;DHT22;37900;52.996;6.278;2023-02-04T15:09:40;15.80;89.90
51863;DHT22;37900;52.996;6.278;2023-02-04T15:12:06;15.90;89.80
51863;DHT22;37900;52.996;6.278;2023-02-04T15:14:32;15.90;89.70
51863;DHT22;37900;52.996;6.278;2023-02-04T15:16:58;15.90;89.60
51863;DHT22;37900;52.996;6.278;2023-02-04T15:19:23;15.90;89.60
51863;DHT22;37900;52.996;6.278;2023-02-04T15:21:50;15.80;89.50
51863;DHT22;37900;52.996;6.278;2023-02-04T15:24:16;15.80;89.40
51863;DHT22;37900;52.996;6.278;2023-02-04T15:26:42;15.80;89.50
51863;DHT22;37900;52.996;6.278;2023-02-04T15:29:07;15.80;89.50
51863;DHT22;37900;52.996;6.278;2023-02-04T15:31:33;15.80;89.60
51863;DHT22;37900;52.996;6.278;2023-02-04T15:34:00;15.80;89.70
51863;DHT22;37900;52.996;6.278;2023-02-04T15:36:26;15.70;90.10
51863;DHT22;37900;52.996;6.278;2023-02-04T15:38:51;15.80;90.30
51863;DHT22;37900;52.996;6.278;2023-02-04T15:41:17;15.70;90.40
51863;DHT22;37900;52.996;6.278;2023-02-04T15:43:43;15.80;90.50